createdAt,value
2023-05-20T00:02:12.093Z,101672.72
2023-05-20T00:04:38.418Z,101655.13
2023-05-20T00:07:04.770Z,101689.06
2023-05-20T00:09:31.019Z,101610.50
2023-05-20T00:11:57.258Z,101666.53
2023-05-20T00:14:23.506Z,101734.16
2023-05-20T00:16:49.782Z,101743.19
2023-05-20T00:19:16.159Z,101756.75
2023-05-20T00:21:42.728Z,101729.06
2023-05-20T00:24:08.985Z,101623.91
2023-05-20T00:26:35.238Z,101580.63
2023-05-20T00:29:01.483Z,101606.59
2023-05-20T00:31:27.764Z,101751.19
2023-05-20T00:33:54.033Z,101812.16
2023-05-20T00:36:20.290Z,101867.69
2023-05-20T00:38:46.660Z,101971.25
2023-05-20T00:41:12.905Z,102014.13
2023-05-20T00:43:39.176Z,102078.25
2023-05-20T00:46:05.536Z,102122.13
2023-05-20T00:48:32.924Z,102065.22
2023-05-20T00:50:59.159Z,102032.56
2023-05-20T00:53:25.422Z,101929.47
2023-05-20T00:55:51.653Z,101939.72
2023-05-20T00:58:17.923Z,101969.75
2023-05-20T01:00:44.171Z,102009.59
2023-05-20T01:03:10.496Z,102106.63
2023-05-20T01:05:38.639Z,102111.69
2023-05-20T01:08:06.168Z,102102.88
2023-05-20T01:10:32.398Z,102054.00
2023-05-20T01:12:59.400Z,102051.19
2023-05-20T01:15:25.630Z,102079.03
2023-05-20T01:17:52.528Z,102052.22
2023-05-20T01:20:18.895Z,102001.31
2023-05-20T01:22:48.495Z,101964.16
2023-05-20T01:25:14.755Z,101957.94
2023-05-20T01:27:41.003Z,101978.38
2023-05-20T01:30:07.502Z,102070.19
2023-05-20T01:32:35.022Z,102084.28
2023-05-20T01:35:01.318Z,102087.19
2023-05-20T01:37:27.565Z,102110.16
2023-05-20T01:39:53.884Z,102036.59
2023-05-20T01:42:20.220Z,102004.28
2023-05-20T01:44:46.479Z,102003.06
2023-05-20T01:47:13.157Z,101967.59
2023-05-20T01:49:39.426Z,101864.81
2023-05-20T01:52:05.693Z,101780.72
2023-05-20T01:54:31.946Z,101764.84
2023-05-20T01:56:58.190Z,101772.16
2023-05-20T01:59:24.458Z,101822.91
2023-05-20T02:01:50.772Z,101872.88
2023-05-20T02:04:17.140Z,101838.53
2023-05-20T02:06:43.375Z,101808.06
2023-05-20T02:09:09.636Z,101827.75
2023-05-20T02:11:35.884Z,101887.75
2023-05-20T02:14:02.194Z,101847.38
2023-05-20T02:16:28.461Z,101815.47
2023-05-20T02:18:54.779Z,101772.47
2023-05-20T02:21:21.040Z,101720.28
2023-05-20T02:23:47.300Z,101719.56
2023-05-20T02:26:13.540Z,101741.25
2023-05-20T02:28:39.784Z,101779.59
2023-05-20T02:31:06.100Z,101824.75
2023-05-20T02:33:32.381Z,101823.50
2023-05-20T02:35:58.801Z,101799.66
2023-05-20T02:38:25.045Z,101806.50
2023-05-20T02:40:51.307Z,101797.06
2023-05-20T02:43:17.571Z,101776.34
2023-05-20T02:45:44.093Z,101716.16
2023-05-20T02:48:10.606Z,101719.81
2023-05-20T02:50:38.379Z,101884.13
2023-05-20T02:53:04.645Z,102145.06
2023-05-20T02:55:33.749Z,102281.38
2023-05-20T02:58:00.120Z,102271.38
2023-05-20T03:00:26.435Z,102216.22
2023-05-20T03:02:52.688Z,102117.66
2023-05-20T03:05:19.005Z,102047.75
2023-05-20T03:07:45.241Z,101983.63
2023-05-20T03:10:11.550Z,101955.50
2023-05-20T03:12:37.833Z,101982.38
2023-05-20T03:15:04.157Z,101966.38
2023-05-20T03:17:30.418Z,101876.75
2023-05-20T03:19:56.730Z,101831.16
2023-05-20T03:22:22.979Z,101810.50
2023-05-20T03:24:49.245Z,101778.63
2023-05-20T03:27:15.521Z,101767.72
2023-05-20T03:29:41.782Z,101706.91
2023-05-20T03:32:09.453Z,101744.72
2023-05-20T03:34:37.024Z,101726.47
2023-05-20T03:37:03.285Z,101726.06
2023-05-20T03:39:29.537Z,101745.09
2023-05-20T03:41:55.829Z,101741.91
2023-05-20T03:44:22.075Z,101699.31
2023-05-20T03:46:48.361Z,101671.63
2023-05-20T03:49:14.686Z,101657.59
2023-05-20T03:51:40.932Z,101681.72
2023-05-20T03:54:07.225Z,101802.31
2023-05-20T03:56:33.610Z,101907.63
2023-05-20T03:58:59.856Z,101983.97
2023-05-20T04:01:26.123Z,101954.34
2023-05-20T04:03:52.455Z,101903.41
2023-05-20T04:06:18.719Z,101834.75
2023-05-20T04:08:44.980Z,101749.25
2023-05-20T04:11:11.225Z,101868.28
2023-05-20T04:16:47.002Z,101903.56
2023-05-20T04:19:13.353Z,101938.47
2023-05-20T04:21:39.656Z,102029.75
2023-05-20T04:24:06.035Z,102029.75
2023-05-20T04:26:32.292Z,102033.19
2023-05-20T04:28:58.548Z,102212.50
2023-05-20T04:31:25.104Z,102234.38
2023-05-20T04:33:51.405Z,102287.53
2023-05-20T04:36:17.658Z,102318.25
2023-05-20T04:41:46.867Z,102327.34
2023-05-20T04:44:13.106Z,102322.28
2023-05-20T04:46:39.394Z,102315.31
2023-05-20T04:49:05.720Z,102299.88
2023-05-20T04:51:31.980Z,102239.41
2023-05-20T04:53:58.230Z,102281.75
2023-05-20T04:56:24.487Z,102324.13
2023-05-20T04:58:50.735Z,102326.16
2023-05-20T05:01:17.032Z,102308.34
2023-05-20T05:03:55.244Z,102292.09
2023-05-20T05:06:21.487Z,102288.06
2023-05-20T05:08:47.769Z,102290.25
2023-05-20T05:11:14.035Z,102302.31
2023-05-20T05:16:50.349Z,102273.22
2023-05-20T05:19:16.613Z,102254.69
2023-05-20T05:24:46.122Z,102186.41
2023-05-20T05:27:12.369Z,102166.63
2023-05-20T05:29:38.623Z,102128.03
2023-05-20T05:32:05.121Z,102081.63
2023-05-20T05:34:31.470Z,102023.47
2023-05-20T05:40:02.432Z,101932.28
2023-05-20T05:42:47.711Z,101820.16
2023-05-20T05:45:13.970Z,101575.78
2023-05-20T05:47:40.281Z,101352.34
2023-05-20T05:50:06.688Z,101195.09
2023-05-20T05:52:32.946Z,101120.41
2023-05-20T05:54:59.199Z,101086.03
2023-05-20T05:57:25.486Z,101150.34
2023-05-20T05:59:51.737Z,101479.72
2023-05-20T06:02:18.051Z,101338.69
2023-05-20T06:07:46.852Z,101101.16
2023-05-20T06:10:13.127Z,100890.50
2023-05-20T06:12:39.383Z,101041.06
2023-05-20T06:15:05.889Z,100990.56
2023-05-20T06:17:32.393Z,100940.34
2023-05-20T06:19:58.958Z,101103.50
2023-05-20T06:22:25.279Z,101039.19
2023-05-20T06:24:51.539Z,100952.69
2023-05-20T06:27:17.793Z,100928.50
2023-05-20T06:29:44.081Z,100976.28
2023-05-20T06:32:10.348Z,100993.88
2023-05-20T06:34:37.201Z,101055.16
2023-05-20T06:37:03.458Z,101083.53
2023-05-20T06:39:29.710Z,100918.28
2023-05-20T06:44:36.115Z,101034.34
2023-05-20T06:47:02.415Z,100967.13
2023-05-20T06:49:28.675Z,101152.16
2023-05-20T06:51:54.928Z,101402.16
2023-05-20T06:54:21.180Z,101161.13
2023-05-20T06:56:47.425Z,101085.63
2023-05-20T06:59:13.691Z,101141.22
2023-05-20T07:01:39.951Z,101270.69
2023-05-20T07:04:06.234Z,101366.06
2023-05-20T07:06:32.492Z,101194.81
2023-05-20T07:08:58.750Z,101287.13
2023-05-20T07:11:25.027Z,101519.34
2023-05-20T07:13:51.289Z,101572.78
2023-05-20T07:16:17.622Z,101283.53
2023-05-20T07:18:44.137Z,101151.34
2023-05-20T07:24:26.697Z,100818.66
2023-05-20T07:30:02.432Z,100744.84
2023-05-20T07:35:38.600Z,100921.53
2023-05-20T07:38:04.859Z,101068.91
2023-05-20T07:43:48.742Z,101307.31
2023-05-20T07:46:15.028Z,101357.63
2023-05-20T07:48:41.321Z,101424.53
2023-05-20T07:54:17.466Z,101592.69
2023-05-20T07:56:43.771Z,101460.72
2023-05-20T07:59:10.026Z,101275.44
2023-05-20T08:01:36.694Z,101382.59
2023-05-20T08:07:06.072Z,101011.38
2023-05-20T08:09:33.845Z,101091.44
2023-05-20T08:15:24.755Z,101055.00
2023-05-20T08:17:51.038Z,100878.88
2023-05-20T08:20:17.360Z,101117.81
2023-05-20T08:22:43.608Z,100983.06
2023-05-20T08:25:09.910Z,100937.34
2023-05-20T08:27:36.386Z,101146.81
2023-05-20T08:30:03.458Z,101384.56
2023-05-20T08:32:29.713Z,101304.06
2023-05-20T08:34:56.006Z,100913.69
2023-05-20T08:37:22.254Z,101023.97
2023-05-20T08:39:48.510Z,100890.78
2023-05-20T08:42:14.766Z,100808.72
2023-05-20T08:44:41.041Z,100722.00
2023-05-20T08:47:07.557Z,100940.31
2023-05-20T08:49:33.825Z,101083.63
2023-05-20T08:52:00.336Z,101049.81
2023-05-20T08:54:27.511Z,101130.84
2023-05-20T08:56:53.773Z,100958.44
2023-05-20T08:59:20.032Z,100788.28
2023-05-20T09:01:46.287Z,100647.56
2023-05-20T09:04:12.548Z,100724.28
2023-05-20T09:06:42.423Z,100739.38
2023-05-20T09:09:10.058Z,100946.25
2023-05-20T09:11:36.362Z,101007.44
2023-05-20T09:14:02.602Z,101033.44
2023-05-20T09:16:28.864Z,101033.22
2023-05-20T09:18:58.129Z,100958.94
2023-05-20T09:21:27.551Z,100944.19
2023-05-20T09:23:53.788Z,101001.13
2023-05-20T09:26:20.185Z,101020.19
2023-05-20T09:28:46.436Z,100969.53
2023-05-20T09:31:13.592Z,101126.72
2023-05-20T09:33:39.951Z,101234.56
2023-05-20T09:36:09.430Z,101242.78
2023-05-20T09:38:38.796Z,101299.41
2023-05-20T09:41:09.156Z,101303.09
2023-05-20T09:43:35.794Z,101268.59
2023-05-20T09:46:02.077Z,101315.47
2023-05-20T09:48:28.518Z,101361.59
2023-05-20T09:50:54.811Z,101433.75
2023-05-20T09:53:21.055Z,101448.81
2023-05-20T09:55:47.325Z,101362.63
2023-05-20T09:58:15.545Z,101462.88
2023-05-20T10:00:42.573Z,101670.97
2023-05-20T10:03:08.934Z,101675.22
2023-05-20T10:05:36.582Z,101684.25
2023-05-20T10:08:18.883Z,101664.38
2023-05-20T10:10:51.369Z,101588.91
2023-05-20T10:13:31.931Z,101537.78
2023-05-20T10:16:18.353Z,101612.66
2023-05-20T10:18:53.928Z,101711.59
2023-05-20T10:21:21.233Z,101593.13
2023-05-20T10:23:47.479Z,101492.50
2023-05-20T10:26:13.737Z,101587.41
2023-05-20T10:28:40.501Z,101515.63
2023-05-20T10:31:22.275Z,101524.09
2023-05-20T10:33:48.632Z,101697.44
2023-05-20T10:36:25.565Z,101781.59
2023-05-20T10:38:52.606Z,101617.03
2023-05-20T10:41:22.200Z,101537.94
2023-05-20T10:43:48.469Z,101585.31
2023-05-20T10:46:30.886Z,101448.34
2023-05-20T10:49:02.066Z,101444.66
2023-05-20T10:51:28.696Z,101441.47
2023-05-20T10:53:55.231Z,101548.50
2023-05-20T10:56:22.229Z,101531.81
2023-05-20T10:58:48.510Z,101534.13
2023-05-20T11:01:15.135Z,101549.06
2023-05-20T11:03:41.532Z,101691.94
2023-05-20T11:06:11.381Z,101615.13
2023-05-20T11:08:37.651Z,101552.69
2023-05-20T11:11:03.924Z,101566.31
2023-05-20T11:13:30.679Z,101699.88
2023-05-20T11:15:56.943Z,101611.13
2023-05-20T11:18:23.190Z,101608.28
2023-05-20T11:20:49.439Z,101684.84
2023-05-20T11:23:15.845Z,101832.00
2023-05-20T11:25:42.272Z,101797.50
2023-05-20T11:28:09.851Z,101795.72
2023-05-20T11:30:36.265Z,101675.59
2023-05-20T11:33:03.536Z,101714.75
2023-05-20T11:35:30.860Z,101737.16
2023-05-20T11:38:03.806Z,101735.41
2023-05-20T11:40:38.902Z,101747.72
2023-05-20T11:43:10.278Z,101678.75
2023-05-20T11:51:54.499Z,101738.56
2023-05-20T11:57:47.620Z,101765.13
2023-05-20T12:19:11.765Z,101774.25
2023-05-20T12:21:38.058Z,101593.41
2023-05-20T12:24:04.399Z,101676.59
2023-05-20T12:26:30.654Z,101797.63
2023-05-20T12:28:56.939Z,101801.06
2023-05-20T12:31:23.316Z,101732.41
2023-05-20T12:33:49.675Z,101825.22
2023-05-20T12:36:16.053Z,101946.97
2023-05-20T12:38:42.308Z,101853.38
2023-05-20T12:41:08.572Z,101822.53
2023-05-20T12:43:36.716Z,101798.72
2023-05-20T12:46:03.430Z,101794.63
2023-05-20T12:48:29.674Z,101833.50
2023-05-20T12:50:55.930Z,101858.91
2023-05-20T12:53:22.180Z,101673.81
2023-05-20T12:55:48.442Z,101632.44
2023-05-20T12:58:14.702Z,101628.66
2023-05-20T13:00:40.988Z,101731.16
2023-05-20T13:03:07.709Z,101764.16
2023-05-20T13:05:34.083Z,101739.19
2023-05-20T13:08:00.355Z,101690.09
2023-05-20T13:10:26.633Z,101676.78
2023-05-20T13:12:53.183Z,101610.63
2023-05-20T13:15:19.437Z,101612.78
2023-05-20T13:17:45.783Z,101564.72
2023-05-20T13:20:12.329Z,101598.75
2023-05-20T13:22:38.597Z,101560.00
2023-05-20T13:25:05.159Z,101541.56
2023-05-20T13:27:31.439Z,101592.94
2023-05-20T13:29:57.727Z,101650.38
2023-05-20T13:32:24.011Z,101633.78
2023-05-20T13:34:50.334Z,101653.53
2023-05-20T13:37:16.692Z,101588.78
2023-05-20T13:39:42.969Z,101572.22
2023-05-20T13:42:09.249Z,101625.94
2023-05-20T13:44:35.521Z,101719.16
2023-05-20T13:47:01.962Z,101768.44
2023-05-20T13:49:28.232Z,101739.28
2023-05-20T13:51:54.490Z,101704.84
2023-05-20T13:54:20.802Z,101509.53
2023-05-20T13:56:47.055Z,101511.41
2023-05-20T13:59:13.358Z,101441.25
2023-05-20T14:01:41.308Z,101538.25
2023-05-20T14:04:07.777Z,101587.13
2023-05-20T14:06:34.042Z,101378.69
2023-05-20T14:09:00.295Z,101401.13
2023-05-20T14:11:26.555Z,101331.63
2023-05-20T14:13:52.806Z,101282.22
2023-05-20T14:16:19.145Z,101121.44
2023-05-20T14:18:45.477Z,101132.53
2023-05-20T14:21:11.876Z,101263.66
2023-05-20T14:23:38.778Z,101375.41
2023-05-20T14:26:05.040Z,101260.47
2023-05-20T14:28:31.299Z,101305.19
2023-05-20T14:30:57.562Z,101388.66
2023-05-20T14:33:23.798Z,101333.78
2023-05-20T14:35:50.067Z,101381.22
2023-05-20T14:38:16.331Z,101243.97
2023-05-20T14:40:42.595Z,101264.63
2023-05-20T14:43:08.874Z,101396.88
2023-05-20T14:45:35.149Z,101392.09
2023-05-20T14:48:03.160Z,101349.03
2023-05-20T14:50:29.443Z,101198.91
2023-05-20T14:52:55.746Z,101134.94
2023-05-20T14:55:22.014Z,101200.56
2023-05-20T14:57:48.455Z,101256.25
2023-05-20T15:00:14.801Z,101262.31
2023-05-20T15:02:41.153Z,101225.03
2023-05-20T15:05:07.510Z,101109.59
2023-05-20T15:07:33.767Z,101117.88
2023-05-20T15:10:00.036Z,101167.28
2023-05-20T15:12:26.298Z,101201.88
2023-05-20T15:14:52.551Z,101220.84
2023-05-20T15:17:18.810Z,101173.53
2023-05-20T15:19:45.098Z,101202.84
2023-05-20T15:22:11.439Z,101192.34
2023-05-20T15:24:37.724Z,101227.31
2023-05-20T15:27:04.210Z,101261.00
2023-05-20T15:29:30.472Z,101286.59
2023-05-20T15:31:56.745Z,101323.88
2023-05-20T15:34:23.006Z,101307.81
2023-05-20T15:36:49.256Z,101423.56
2023-05-20T15:39:15.518Z,101437.53
2023-05-20T15:41:41.777Z,101406.97
2023-05-20T15:44:08.227Z,101274.63
2023-05-20T15:46:34.524Z,101285.91
2023-05-20T15:49:00.923Z,101420.63
2023-05-20T15:51:27.264Z,101446.22
2023-05-20T15:53:53.557Z,101342.94
2023-05-20T15:56:19.814Z,101196.94
2023-05-20T15:58:46.064Z,101028.53
2023-05-20T16:01:12.379Z,100972.88
2023-05-20T16:03:38.700Z,100998.84
2023-05-20T16:06:05.017Z,101063.19
2023-05-20T16:08:31.302Z,101095.66
2023-05-20T16:10:57.636Z,100900.06
2023-05-20T16:13:24.300Z,101037.94
2023-05-20T16:15:50.621Z,101017.53
2023-05-20T16:18:16.920Z,101117.63
2023-05-20T16:20:43.203Z,101098.66
2023-05-20T16:23:09.468Z,101067.66
2023-05-20T16:25:35.725Z,101052.56
2023-05-20T16:28:01.999Z,101162.66
2023-05-20T16:30:28.271Z,101139.72
2023-05-20T16:32:54.743Z,101116.25
2023-05-20T16:35:21.053Z,101160.06
2023-05-20T16:37:47.329Z,101193.88
2023-05-20T16:40:13.656Z,101147.16
2023-05-20T16:42:39.937Z,101136.00
2023-05-20T16:45:06.441Z,101114.22
2023-05-20T16:47:32.696Z,101212.25
2023-05-20T16:49:58.954Z,101131.03
2023-05-20T16:52:25.305Z,101148.97
2023-05-20T16:54:51.792Z,101101.28
2023-05-20T16:57:18.044Z,101140.13
2023-05-20T16:59:44.584Z,101268.25
2023-05-20T17:02:10.848Z,101245.31
2023-05-20T17:04:37.137Z,101179.94
2023-05-20T17:07:03.446Z,101181.56
2023-05-20T17:09:29.688Z,101215.91
2023-05-20T17:11:55.949Z,101246.75
2023-05-20T17:14:22.222Z,101318.66
2023-05-20T17:16:48.572Z,101427.94
2023-05-20T17:19:14.926Z,101406.41
2023-05-20T17:21:41.248Z,101318.41
2023-05-20T17:24:07.510Z,101175.28
2023-05-20T17:26:33.750Z,101192.69
2023-05-20T17:29:00.011Z,101259.91
2023-05-20T17:31:26.281Z,101269.88
2023-05-20T17:33:52.582Z,101209.84
2023-05-20T17:36:18.922Z,101208.78
2023-05-20T17:38:45.174Z,101148.19
2023-05-20T17:41:11.447Z,101141.63
2023-05-20T17:43:37.693Z,101200.63
2023-05-20T17:46:04.040Z,101162.69
2023-05-20T17:48:30.307Z,101123.72
2023-05-20T17:50:56.558Z,101045.50
2023-05-20T17:53:22.815Z,101011.84
2023-05-20T17:55:49.070Z,101066.13
2023-05-20T17:58:15.419Z,101178.50
2023-05-20T18:00:41.676Z,101240.28
2023-05-20T18:03:11.102Z,101197.97
2023-05-20T18:05:37.401Z,101105.34
2023-05-20T18:08:03.711Z,101116.09
2023-05-20T18:10:29.969Z,101025.63
2023-05-20T18:12:56.262Z,100911.00
2023-05-20T18:15:22.510Z,100807.41
2023-05-20T18:17:48.895Z,100835.56
2023-05-20T18:20:15.196Z,100891.25
2023-05-20T18:22:41.456Z,100862.63
2023-05-20T18:25:07.959Z,100954.59
2023-05-20T18:27:34.205Z,101028.41
2023-05-20T18:30:00.462Z,101099.59
2023-05-20T18:32:26.741Z,101149.75
2023-05-20T18:34:52.996Z,101160.81
2023-05-20T18:37:19.240Z,101188.56
2023-05-20T18:39:45.489Z,101181.16
2023-05-20T18:42:11.740Z,101259.06
2023-05-20T18:44:37.987Z,101279.34
2023-05-20T18:47:04.300Z,101334.75
2023-05-20T18:49:30.556Z,101283.72
2023-05-20T18:51:56.827Z,101323.75
2023-05-20T18:54:23.076Z,101326.28
2023-05-20T18:56:49.357Z,101368.03
2023-05-20T18:59:15.610Z,101356.03
2023-05-20T19:01:41.870Z,101413.84
2023-05-20T19:04:08.146Z,101401.38
2023-05-20T19:06:34.413Z,101401.97
2023-05-20T19:09:01.076Z,101342.75
2023-05-20T19:11:27.520Z,101299.31
2023-05-20T19:13:53.766Z,101256.88
2023-05-20T19:16:20.081Z,101289.81
2023-05-20T19:18:46.402Z,101291.88
2023-05-20T19:21:12.659Z,101266.22
2023-05-20T19:23:38.966Z,101341.16
2023-05-20T19:26:05.326Z,101335.59
2023-05-20T19:28:31.575Z,101340.84
2023-05-20T19:30:57.886Z,101415.56
2023-05-20T19:33:24.213Z,101473.50
2023-05-20T19:35:50.481Z,101491.56
2023-05-20T19:38:16.737Z,101497.75
2023-05-20T19:40:43.496Z,101498.41
2023-05-20T19:43:09.769Z,101434.94
2023-05-20T19:45:36.245Z,101465.38
2023-05-20T19:48:06.068Z,101523.81
2023-05-20T19:50:32.425Z,101472.81
2023-05-20T19:52:58.753Z,101468.00
2023-05-20T19:55:25.008Z,101422.91
2023-05-20T19:57:51.266Z,101439.16
2023-05-20T20:00:17.618Z,101489.72
2023-05-20T20:02:43.923Z,101505.09
2023-05-20T20:05:10.184Z,101502.47
2023-05-20T20:07:36.476Z,101485.88
2023-05-20T20:10:02.726Z,101549.97
2023-05-20T20:12:28.981Z,101506.44
2023-05-20T20:14:55.227Z,101473.19
2023-05-20T20:17:23.013Z,101473.34
2023-05-20T20:19:49.601Z,101471.06
2023-05-20T20:22:16.290Z,101532.09
2023-05-20T20:24:42.526Z,101546.22
2023-05-20T20:27:08.781Z,101502.75
2023-05-20T20:29:35.027Z,101526.88
2023-05-20T20:32:01.346Z,101550.25
2023-05-20T20:34:27.634Z,101589.25
2023-05-20T20:36:54.018Z,101597.00
2023-05-20T20:39:20.458Z,101628.28
2023-05-20T20:41:46.811Z,101654.03
2023-05-20T20:44:14.706Z,101647.19
2023-05-20T20:46:40.976Z,101576.03
2023-05-20T20:49:07.249Z,101543.97
2023-05-20T20:51:33.512Z,101566.19
2023-05-20T20:53:59.765Z,101579.09
2023-05-20T20:56:26.040Z,101598.13
2023-05-20T20:58:52.294Z,101604.84
2023-05-20T21:01:18.634Z,101601.09
2023-05-20T21:03:45.027Z,101575.69
2023-05-20T21:06:11.371Z,101600.72
2023-05-20T21:08:37.643Z,101636.66
2023-05-20T21:11:03.883Z,101609.22
2023-05-20T21:13:30.171Z,101621.78
2023-05-20T21:15:56.491Z,101625.22
2023-05-20T21:18:22.767Z,101641.03
2023-05-20T21:20:52.682Z,101663.22
2023-05-20T21:23:19.269Z,101652.53
2023-05-20T21:25:45.603Z,101651.25
2023-05-20T21:28:11.865Z,101686.84
2023-05-20T21:30:38.153Z,101678.41
2023-05-20T21:33:04.466Z,101690.69
2023-05-20T21:35:30.739Z,101686.91
2023-05-20T21:37:57.002Z,101683.94
2023-05-20T21:40:23.238Z,101695.19
2023-05-20T21:42:49.492Z,101704.16
2023-05-20T21:45:15.751Z,101711.41
2023-05-20T21:47:42.045Z,101726.88
2023-05-20T21:50:08.413Z,101715.84
2023-05-20T21:52:34.663Z,101718.03
2023-05-20T21:55:00.912Z,101722.50
2023-05-20T21:57:27.167Z,101736.59
2023-05-20T21:59:53.429Z,101736.53
2023-05-20T22:02:19.687Z,101737.13
2023-05-20T22:04:45.932Z,101719.25
2023-05-20T22:07:12.204Z,101720.91
2023-05-20T22:09:38.447Z,101735.88
2023-05-20T22:12:04.824Z,101743.72
2023-05-20T22:14:31.064Z,101739.63
2023-05-20T22:16:57.561Z,101730.19
2023-05-20T22:19:23.861Z,101739.38
2023-05-20T22:21:51.164Z,101729.84
2023-05-20T22:24:17.779Z,101693.22
2023-05-20T22:26:44.161Z,101694.28
2023-05-20T22:29:10.424Z,101687.94
2023-05-20T22:31:36.777Z,101666.78
2023-05-20T22:34:03.107Z,101662.66
2023-05-20T22:36:29.367Z,101654.81
2023-05-20T22:38:55.631Z,101664.63
2023-05-20T22:41:21.872Z,101690.59
2023-05-20T22:43:48.147Z,101654.09
2023-05-20T22:46:14.450Z,101669.16
2023-05-20T22:48:40.736Z,101681.47
2023-05-20T22:51:07.008Z,101701.16
2023-05-20T22:53:33.302Z,101692.09
2023-05-20T22:55:59.545Z,101681.25
2023-05-20T22:58:25.794Z,101689.47
2023-05-20T23:00:52.074Z,101665.53
2023-05-20T23:03:18.359Z,101667.19
2023-05-20T23:05:44.755Z,101655.56
2023-05-20T23:08:11.025Z,101661.06
2023-05-20T23:10:37.348Z,101679.44
2023-05-20T23:13:03.633Z,101692.78
2023-05-20T23:15:29.906Z,101700.69
2023-05-20T23:17:56.276Z,101707.94
2023-05-20T23:20:22.556Z,101709.53
2023-05-20T23:22:48.858Z,101711.19
2023-05-20T23:25:15.149Z,101715.09
2023-05-20T23:27:41.436Z,101704.53
2023-05-20T23:30:07.989Z,101699.50
2023-05-20T23:32:34.309Z,101703.44
2023-05-20T23:35:00.636Z,101685.16
2023-05-20T23:37:26.907Z,101674.69
2023-05-20T23:39:53.316Z,101664.44
2023-05-20T23:42:19.572Z,101662.63
2023-05-20T23:44:45.816Z,101657.88
2023-05-20T23:47:12.064Z,101663.31
2023-05-20T23:49:38.314Z,101672.59
2023-05-20T23:52:04.720Z,101679.47
2023-05-20T23:54:30.984Z,101685.34
2023-05-20T23:56:57.540Z,101704.78
2023-05-20T23:59:23.792Z,101690.88
